createdAt,value
2019-01-03T00:00:10.970Z,21.95
2019-01-03T00:02:58.993Z,19.17
2019-01-03T00:05:56.303Z,15.93
2019-01-03T00:08:59.175Z,14.70
2019-01-03T00:11:44.369Z,18.05
2019-01-03T00:14:30.216Z,14.78
2019-01-03T00:17:16.148Z,16.97
2019-01-03T00:20:02.289Z,17.27
2019-01-03T00:22:48.515Z,16.17
2019-01-03T00:25:44.867Z,18.42
2019-01-03T00:28:39.022Z,20.35
2019-01-03T00:31:23.668Z,13.72
2019-01-03T00:34:17.175Z,19.52
2019-01-03T00:37:01.774Z,18.32
2019-01-03T00:39:52.438Z,18.05
2019-01-03T00:42:39.709Z,18.40
2019-01-03T00:45:26.946Z,21.25
2019-01-03T00:48:23.244Z,17.02
2019-01-03T00:51:25.324Z,18.35
2019-01-03T00:54:15.777Z,19.62
2019-01-03T00:57:01.344Z,20.27
2019-01-03T00:59:48.601Z,19.37
2019-01-03T01:02:35.426Z,19.10
2019-01-03T01:05:21.553Z,18.82
2019-01-03T01:08:09.236Z,19.82
2019-01-03T01:10:55.342Z,20.35
2019-01-03T01:13:43.173Z,15.50
2019-01-03T01:16:41.728Z,20.12
2019-01-03T01:19:28.810Z,16.77
2019-01-03T01:22:28.444Z,19.15
2019-01-03T01:25:18.512Z,17.80
2019-01-03T01:28:15.224Z,16.48
2019-01-03T01:31:09.535Z,21.00
2019-01-03T01:33:56.985Z,22.20
2019-01-03T01:36:44.557Z,22.15
2019-01-03T01:39:40.872Z,19.37
2019-01-03T01:42:22.774Z,20.55
2019-01-03T01:45:09.512Z,16.00
2019-01-03T01:47:55.039Z,21.48
2019-01-03T01:50:45.203Z,17.73
2019-01-03T01:53:44.005Z,18.45
2019-01-03T01:56:34.058Z,17.45
2019-01-03T01:59:24.237Z,21.73
2019-01-03T02:02:23.319Z,19.82
2019-01-03T02:05:13.215Z,16.90
2019-01-03T02:08:00.011Z,15.85
2019-01-03T02:11:01.960Z,20.50
2019-01-03T02:13:52.076Z,17.00
2019-01-03T02:16:39.483Z,19.07
2019-01-03T02:19:39.111Z,16.65
2019-01-03T02:22:41.437Z,60.30
2019-01-03T02:25:27.417Z,21.15
2019-01-03T02:28:13.164Z,17.02
2019-01-03T02:31:09.327Z,18.95
2019-01-03T02:34:14.689Z,19.55
2019-01-03T02:37:14.150Z,16.62
2019-01-03T02:39:59.655Z,18.65
2019-01-03T02:42:47.559Z,17.07
2019-01-03T02:45:41.000Z,14.13
2019-01-03T02:48:38.626Z,17.27
2019-01-03T02:51:31.672Z,17.30
2019-01-03T02:54:24.917Z,17.95
2019-01-03T02:57:14.135Z,17.50
2019-01-03T03:00:01.348Z,18.60
2019-01-03T03:02:49.568Z,16.73
2019-01-03T03:05:42.559Z,16.50
2019-01-03T03:08:32.415Z,14.33
2019-01-03T03:11:34.335Z,19.05
2019-01-03T03:14:41.491Z,15.18
2019-01-03T03:17:28.647Z,16.23
2019-01-03T03:20:19.530Z,16.60
2019-01-03T03:23:05.414Z,17.98
2019-01-03T03:26:07.266Z,21.37
2019-01-03T03:29:03.713Z,21.73
2019-01-03T03:31:53.959Z,19.82
2019-01-03T03:34:56.260Z,21.48
2019-01-03T03:37:46.907Z,22.62
2019-01-03T03:40:39.911Z,16.12
2019-01-03T03:43:28.309Z,17.80
2019-01-03T03:46:14.027Z,14.40
2019-01-03T03:49:00.457Z,19.77
2019-01-03T03:51:50.743Z,14.35
2019-01-03T03:54:51.833Z,15.80
2019-01-03T03:57:41.992Z,15.83
2019-01-03T04:00:28.220Z,15.48
2019-01-03T04:03:21.585Z,15.75
2019-01-03T04:06:08.997Z,14.95
2019-01-03T04:08:55.155Z,17.92
2019-01-03T04:11:40.831Z,16.57
2019-01-03T04:14:43.699Z,18.60
2019-01-03T04:17:29.569Z,16.67
2019-01-03T04:20:16.881Z,16.95
2019-01-03T04:23:13.014Z,15.83
2019-01-03T04:26:00.130Z,16.20
2019-01-03T04:28:49.381Z,16.00
2019-01-03T04:31:33.866Z,17.80
2019-01-03T04:34:30.097Z,12.70
2019-01-03T04:37:15.763Z,16.97
2019-01-03T04:40:03.811Z,17.30
2019-01-03T04:42:53.875Z,17.80
2019-01-03T04:45:44.345Z,19.05
2019-01-03T04:48:30.052Z,16.57
2019-01-03T04:51:16.086Z,15.93
2019-01-03T04:54:06.701Z,18.12
2019-01-03T04:56:54.009Z,19.02
2019-01-03T04:59:46.924Z,19.32
2019-01-03T05:02:28.211Z,16.40
2019-01-03T05:05:27.701Z,23.10
2019-01-03T05:08:21.077Z,20.02
2019-01-03T05:10:59.319Z,16.52
2019-01-03T05:13:44.934Z,15.55
2019-01-03T05:16:38.205Z,18.35
2019-01-03T05:19:23.950Z,13.28
2019-01-03T05:22:16.900Z,16.77
2019-01-03T05:25:08.416Z,28.73
2019-01-03T05:27:56.428Z,17.45
2019-01-03T05:30:42.270Z,15.43
2019-01-03T05:36:21.594Z,17.37
2019-01-03T05:39:16.153Z,21.12
2019-01-03T05:42:03.564Z,20.48
2019-01-03T05:44:49.481Z,21.93
2019-01-03T05:47:56.797Z,20.95
2019-01-03T05:50:47.003Z,18.52
2019-01-03T05:53:39.630Z,17.87
2019-01-03T05:56:27.139Z,18.98
2019-01-03T05:59:17.397Z,21.33
2019-01-03T06:02:10.111Z,21.17
2019-01-03T06:05:03.162Z,15.90
2019-01-03T06:07:48.913Z,20.15
2019-01-03T06:10:42.136Z,19.15
2019-01-03T06:13:38.575Z,22.50
2019-01-03T06:16:28.973Z,19.95
2019-01-03T06:19:15.043Z,21.40
2019-01-03T06:22:00.506Z,18.30
2019-01-03T06:24:59.352Z,22.32
2019-01-03T06:28:09.380Z,21.73
2019-01-03T06:31:00.553Z,21.65
2019-01-03T06:33:46.586Z,20.50
2019-01-03T06:36:37.400Z,23.38
2019-01-03T06:39:24.525Z,21.23
2019-01-03T06:42:18.792Z,17.90
2019-01-03T06:45:15.302Z,21.05
2019-01-03T06:48:01.607Z,23.00
2019-01-03T06:50:51.897Z,19.65
2019-01-03T06:53:39.504Z,19.92
2019-01-03T06:56:27.173Z,21.65
2019-01-03T06:59:12.518Z,18.62
2019-01-03T07:02:02.752Z,19.65
2019-01-03T07:04:47.378Z,18.40
2019-01-03T07:07:43.742Z,24.40
2019-01-03T07:10:29.062Z,21.17
2019-01-03T07:13:14.943Z,26.62
2019-01-03T07:16:00.641Z,21.75
2019-01-03T07:18:47.512Z,18.95
2019-01-03T07:21:37.789Z,15.00
2019-01-03T07:24:40.459Z,19.92
2019-01-03T07:27:26.204Z,14.75
2019-01-03T07:30:11.992Z,22.25
2019-01-03T07:33:05.252Z,19.17
2019-01-03T07:35:51.122Z,26.27
2019-01-03T07:38:39.644Z,21.57
2019-01-03T07:41:25.284Z,21.75
2019-01-03T07:44:23.013Z,19.98
2019-01-03T07:47:09.135Z,22.30
2019-01-03T07:50:11.575Z,23.02
2019-01-03T07:53:01.460Z,24.47
2019-01-03T07:56:06.984Z,21.12
2019-01-03T07:58:52.870Z,24.23
2019-01-03T08:01:52.410Z,24.90
2019-01-03T08:04:48.665Z,27.05
2019-01-03T08:07:39.119Z,22.98
2019-01-03T08:10:38.608Z,22.37
2019-01-03T08:13:35.262Z,24.65
2019-01-03T08:16:31.571Z,24.75
2019-01-03T08:19:30.799Z,22.80
2019-01-03T08:22:16.637Z,23.73
2019-01-03T08:25:04.106Z,38.00
2019-01-03T08:28:00.443Z,23.12
2019-01-03T08:30:50.669Z,23.52
2019-01-03T08:33:35.209Z,27.13
2019-01-03T08:36:20.901Z,26.27
2019-01-03T08:39:26.391Z,28.47
2019-01-03T08:42:28.582Z,22.60
2019-01-03T08:45:14.740Z,21.40
2019-01-03T08:48:09.259Z,26.20
2019-01-03T08:51:02.391Z,26.48
2019-01-03T08:53:48.286Z,23.10
2019-01-03T08:56:34.247Z,28.40
2019-01-03T08:59:24.307Z,28.17
2019-01-03T09:02:17.408Z,30.10
2019-01-03T09:05:03.342Z,21.15
2019-01-03T09:07:50.602Z,19.90
2019-01-03T09:10:39.817Z,24.95
2019-01-03T09:13:26.344Z,24.02
2019-01-03T09:16:17.028Z,24.15
2019-01-03T09:19:03.144Z,20.40
2019-01-03T09:22:08.762Z,18.17
2019-01-03T09:24:59.075Z,20.50
2019-01-03T09:27:52.239Z,16.67
2019-01-03T09:30:39.419Z,22.32
2019-01-03T09:33:32.268Z,20.50
2019-01-03T09:36:28.501Z,21.10
2019-01-03T09:39:20.214Z,14.60
2019-01-03T09:42:05.647Z,17.90
2019-01-03T09:44:45.990Z,18.20
2019-01-03T09:47:14.978Z,17.80
2019-01-03T09:49:42.727Z,16.37
2019-01-03T09:52:10.490Z,13.25
2019-01-03T09:54:38.316Z,16.50
2019-01-03T09:57:06.050Z,14.55
2019-01-03T09:59:34.019Z,13.98
2019-01-03T10:02:02.764Z,12.95
2019-01-03T10:04:31.599Z,13.25
2019-01-03T10:06:59.904Z,12.47
2019-01-03T10:09:27.762Z,17.37
2019-01-03T10:11:55.912Z,20.75
2019-01-03T10:14:23.484Z,21.68
2019-01-03T10:16:51.491Z,14.83
2019-01-03T10:19:20.137Z,12.00
2019-01-03T10:21:48.183Z,18.92
2019-01-03T10:24:16.310Z,13.65
2019-01-03T10:26:44.186Z,12.45
2019-01-03T10:29:11.994Z,16.05
2019-01-03T10:31:39.862Z,18.70
2019-01-03T10:34:07.682Z,13.08
2019-01-03T10:36:35.328Z,16.70
2019-01-03T10:39:06.137Z,15.20
2019-01-03T10:41:33.794Z,14.73
2019-01-03T10:44:01.588Z,18.70
2019-01-03T10:46:29.198Z,14.13
2019-01-03T10:48:56.923Z,17.23
2019-01-03T10:51:24.848Z,17.55
2019-01-03T10:53:52.739Z,18.57
2019-01-03T10:56:20.594Z,16.40
2019-01-03T10:58:48.928Z,15.50
2019-01-03T11:01:16.730Z,12.23
2019-01-03T11:03:44.594Z,15.43
2019-01-03T11:06:12.662Z,14.45
2019-01-03T11:08:40.317Z,20.62
2019-01-03T11:11:08.094Z,14.93
2019-01-03T11:13:36.003Z,14.87
2019-01-03T11:16:04.956Z,16.65
2019-01-03T11:18:32.624Z,17.15
2019-01-03T11:21:00.537Z,13.40
2019-01-03T11:23:28.309Z,11.95
2019-01-03T11:25:56.314Z,14.83
2019-01-03T11:28:24.028Z,10.78
2019-01-03T11:30:52.272Z,12.25
2019-01-03T11:33:19.921Z,14.65
2019-01-03T11:35:47.767Z,12.13
2019-01-03T11:38:15.573Z,10.40
2019-01-03T11:40:43.463Z,10.55
2019-01-03T11:43:12.175Z,13.38
2019-01-03T11:45:40.838Z,14.47
2019-01-03T11:48:08.663Z,11.90
2019-01-03T11:50:36.539Z,23.87
2019-01-03T11:53:04.213Z,13.62
2019-01-03T11:55:40.827Z,12.82
2019-01-03T11:58:08.718Z,20.48
2019-01-03T12:00:39.097Z,14.83
2019-01-03T12:03:06.936Z,13.88
2019-01-03T12:05:34.736Z,14.33
2019-01-03T12:08:02.764Z,18.87
2019-01-03T12:10:30.529Z,14.28
2019-01-03T12:12:58.385Z,14.38
2019-01-03T12:15:26.214Z,14.15
2019-01-03T12:17:54.129Z,54.77
2019-01-03T12:20:21.967Z,27.98
2019-01-03T12:22:49.780Z,16.77
2019-01-03T12:25:19.585Z,14.87
2019-01-03T12:27:47.553Z,11.80
2019-01-03T12:30:15.181Z,14.43
2019-01-03T12:32:42.909Z,16.23
2019-01-03T12:35:10.904Z,13.22
2019-01-03T12:37:38.735Z,14.63
2019-01-03T12:40:07.729Z,10.63
2019-01-03T12:42:35.389Z,14.03
2019-01-03T12:45:03.460Z,13.45
2019-01-03T12:47:33.486Z,12.30
2019-01-03T12:50:03.941Z,9.10
2019-01-03T12:52:31.621Z,10.20
2019-01-03T12:54:59.174Z,9.73
2019-01-03T12:57:26.944Z,9.68
2019-01-03T12:59:54.896Z,13.18
2019-01-03T13:02:22.755Z,7.15
2019-01-03T13:04:50.520Z,10.70
2019-01-03T13:07:18.077Z,12.13
2019-01-03T13:09:45.875Z,6.15
2019-01-03T13:12:13.838Z,10.48
2019-01-03T13:14:41.561Z,6.80
2019-01-03T13:17:09.223Z,7.83
2019-01-03T13:19:36.834Z,7.05
2019-01-03T13:22:04.538Z,6.47
2019-01-03T13:24:32.630Z,14.58
2019-01-03T13:27:00.645Z,7.65
2019-01-03T13:29:28.157Z,8.38
2019-01-03T13:31:56.268Z,7.33
2019-01-03T13:34:23.834Z,8.50
2019-01-03T13:36:51.563Z,7.60
2019-01-03T13:39:19.225Z,14.35
2019-01-03T13:41:48.491Z,13.03
2019-01-03T13:44:16.752Z,8.03
2019-01-03T13:46:44.604Z,8.15
2019-01-03T13:49:13.096Z,7.90
2019-01-03T13:51:40.750Z,6.75
2019-01-03T13:54:08.737Z,6.25
2019-01-03T13:56:36.482Z,9.98
2019-01-03T13:59:04.604Z,5.50
2019-01-03T14:01:34.724Z,8.18
2019-01-03T14:04:02.592Z,8.85
2019-01-03T14:06:30.557Z,7.15
2019-01-03T14:08:58.400Z,6.83
2019-01-03T14:11:26.175Z,10.08
2019-01-03T14:13:54.223Z,8.13
2019-01-03T14:16:22.009Z,10.28
2019-01-03T14:18:49.879Z,8.48
2019-01-03T14:21:18.065Z,8.28
2019-01-03T14:23:47.146Z,6.67
2019-01-03T14:26:14.840Z,6.80
2019-01-03T14:28:42.593Z,8.98
2019-01-03T14:31:10.363Z,8.75
2019-01-03T14:33:38.135Z,11.22
2019-01-03T14:36:06.092Z,9.53
2019-01-03T14:38:33.960Z,10.05
2019-01-03T14:41:01.854Z,10.53
2019-01-03T14:43:29.687Z,7.85
2019-01-03T14:45:57.278Z,7.42
2019-01-03T14:48:26.246Z,8.85
2019-01-03T14:50:55.047Z,7.95
2019-01-03T14:53:27.136Z,7.65
2019-01-03T14:55:54.748Z,10.82
2019-01-03T14:58:28.554Z,7.37
2019-01-03T15:00:56.589Z,9.70
2019-01-03T15:03:24.162Z,7.72
2019-01-03T15:05:51.975Z,8.75
2019-01-03T15:08:19.889Z,8.80
2019-01-03T15:10:47.620Z,8.80
2019-01-03T15:13:15.638Z,9.53
2019-01-03T15:15:43.350Z,10.50
2019-01-03T15:18:11.275Z,12.13
2019-01-03T15:20:39.482Z,12.15
2019-01-03T15:23:07.091Z,12.45
2019-01-03T15:25:34.848Z,15.08
2019-01-03T15:28:06.101Z,13.88
2019-01-03T15:30:33.812Z,13.90
2019-01-03T15:33:02.958Z,15.00
2019-01-03T15:35:32.050Z,14.23
2019-01-03T15:37:59.946Z,14.80
2019-01-03T15:40:30.709Z,13.38
2019-01-03T15:42:58.596Z,12.85
2019-01-03T15:45:26.414Z,14.30
2019-01-03T15:47:54.293Z,11.68
2019-01-03T15:50:22.141Z,16.60
2019-01-03T15:52:49.983Z,12.25
2019-01-03T15:55:17.946Z,13.30
2019-01-03T15:57:45.676Z,14.68
2019-01-03T16:00:13.664Z,15.40
2019-01-03T16:02:41.461Z,14.15
2019-01-03T16:05:09.761Z,15.83
2019-01-03T16:07:37.613Z,16.93
2019-01-03T16:10:06.020Z,14.15
2019-01-03T16:12:33.765Z,18.23
2019-01-03T16:15:01.635Z,16.97
2019-01-03T16:17:29.916Z,25.90
2019-01-03T16:19:57.791Z,20.05
2019-01-03T16:22:25.741Z,15.78
2019-01-03T16:24:53.503Z,13.43
2019-01-03T16:27:21.434Z,19.62
2019-01-03T16:29:49.239Z,14.00
2019-01-03T16:32:16.829Z,13.10
2019-01-03T16:34:44.490Z,13.83
2019-01-03T16:37:12.390Z,15.63
2019-01-03T16:39:40.326Z,15.65
2019-01-03T16:42:08.090Z,21.17
2019-01-03T16:44:35.723Z,16.25
2019-01-03T16:47:03.510Z,14.35
2019-01-03T16:49:31.457Z,10.65
2019-01-03T16:51:59.315Z,16.52
2019-01-03T16:54:27.045Z,11.83
2019-01-03T16:56:54.898Z,13.08
2019-01-03T16:59:22.847Z,13.03
2019-01-03T17:01:50.620Z,12.88
2019-01-03T17:04:18.626Z,16.77
2019-01-03T17:06:47.629Z,14.30
2019-01-03T17:09:16.394Z,12.18
2019-01-03T17:11:45.413Z,11.35
2019-01-03T17:14:13.409Z,12.25
2019-01-03T17:16:41.203Z,13.00
2019-01-03T17:19:09.141Z,15.08
2019-01-03T17:21:36.821Z,11.43
2019-01-03T17:24:04.817Z,10.53
2019-01-03T17:26:32.660Z,10.85
2019-01-03T17:29:00.359Z,10.30
2019-01-03T17:31:28.089Z,14.87
2019-01-03T17:33:55.784Z,15.13
2019-01-03T17:36:23.688Z,17.02
2019-01-03T17:38:51.305Z,16.15
2019-01-03T17:41:19.071Z,13.10
2019-01-03T17:43:46.835Z,14.07
2019-01-03T17:46:14.772Z,15.65
2019-01-03T17:48:42.565Z,15.83
2019-01-03T17:51:10.612Z,12.47
2019-01-03T17:53:38.298Z,17.05
2019-01-03T17:56:06.730Z,15.20
2019-01-03T17:58:34.484Z,15.60
2019-01-03T18:01:02.347Z,16.48
2019-01-03T18:03:31.513Z,18.12
2019-01-03T18:05:59.365Z,18.27
2019-01-03T18:08:27.217Z,12.03
2019-01-03T18:10:54.963Z,16.45
2019-01-03T18:13:22.938Z,14.83
2019-01-03T18:15:50.722Z,14.30
2019-01-03T18:18:18.650Z,15.00
2019-01-03T18:20:46.581Z,17.05
2019-01-03T18:23:14.467Z,17.17
2019-01-03T18:25:42.187Z,13.10
2019-01-03T18:28:10.176Z,14.95
2019-01-03T18:30:37.941Z,16.60
2019-01-03T18:33:05.891Z,14.95
2019-01-03T18:35:33.490Z,207.22
2019-01-03T18:38:04.916Z,947.35
2019-01-03T18:40:33.609Z,1337.10
2019-01-03T18:43:01.972Z,199.30
2019-01-03T18:45:29.711Z,54.58
2019-01-03T18:47:57.526Z,83.15
2019-01-03T18:50:25.472Z,81.32
2019-01-03T18:52:53.255Z,28.35
2019-01-03T18:55:21.216Z,37.28
2019-01-03T18:57:49.402Z,14.75
2019-01-03T19:00:17.421Z,15.53
2019-01-03T19:02:45.086Z,22.02
2019-01-03T19:05:13.215Z,13.25
2019-01-03T19:07:41.284Z,12.45
2019-01-03T19:10:09.840Z,13.25
2019-01-03T19:12:39.577Z,14.13
2019-01-03T19:15:08.893Z,16.85
2019-01-03T19:17:36.794Z,13.13
2019-01-03T19:20:07.159Z,15.00
2019-01-03T19:22:35.080Z,15.72
2019-01-03T19:25:06.136Z,11.30
2019-01-03T19:27:34.051Z,13.08
2019-01-03T19:30:02.409Z,11.40
2019-01-03T19:32:30.280Z,17.05
2019-01-03T19:34:58.399Z,11.20
2019-01-03T19:37:26.358Z,10.32
2019-01-03T19:39:54.369Z,12.95
2019-01-03T19:42:22.480Z,13.72
2019-01-03T19:44:50.274Z,10.65
2019-01-03T19:47:18.153Z,14.53
2019-01-03T19:49:48.400Z,12.37
2019-01-03T19:52:16.240Z,10.80
2019-01-03T19:54:44.297Z,13.03
2019-01-03T19:57:12.631Z,12.28
2019-01-03T19:59:43.278Z,12.25
2019-01-03T20:02:11.311Z,10.20
2019-01-03T20:04:39.079Z,11.20
2019-01-03T20:07:06.881Z,11.18
2019-01-03T20:09:35.353Z,13.95
2019-01-03T20:12:03.073Z,13.28
2019-01-03T20:14:30.918Z,14.50
2019-01-03T20:16:58.672Z,14.55
2019-01-03T20:19:29.675Z,13.13
2019-01-03T20:21:57.320Z,10.82
2019-01-03T20:24:25.271Z,11.08
2019-01-03T20:26:53.096Z,11.00
2019-01-03T20:29:20.945Z,13.75
2019-01-03T20:31:48.762Z,13.78
2019-01-03T20:34:16.343Z,11.53
2019-01-03T20:36:44.420Z,16.65
2019-01-03T20:39:12.569Z,11.08
2019-01-03T20:41:40.331Z,10.40
2019-01-03T20:44:07.905Z,8.25
2019-01-03T20:46:35.645Z,11.40
2019-01-03T20:49:03.812Z,10.40
2019-01-03T20:51:31.752Z,10.93
2019-01-03T20:53:59.579Z,10.25
2019-01-03T20:56:28.234Z,10.70
2019-01-03T20:58:56.143Z,10.82
2019-01-03T21:01:24.126Z,11.70
2019-01-03T21:03:51.848Z,12.37
2019-01-03T21:06:19.568Z,11.03
2019-01-03T21:08:47.280Z,27.13
2019-01-03T21:11:16.424Z,30.02
2019-01-03T21:13:45.101Z,14.30
2019-01-03T21:16:14.417Z,11.10
2019-01-03T21:18:46.163Z,11.85
2019-01-03T21:21:14.851Z,11.20
2019-01-03T21:23:42.658Z,10.82
2019-01-03T21:26:11.263Z,10.48
2019-01-03T21:28:39.134Z,12.80
2019-01-03T21:31:12.830Z,14.23
2019-01-03T21:33:41.251Z,10.43
2019-01-03T21:36:11.811Z,9.48
2019-01-03T21:38:39.710Z,8.58
2019-01-03T21:41:08.702Z,10.98
2019-01-03T21:43:36.575Z,9.55
2019-01-03T21:46:05.689Z,11.03
2019-01-03T21:48:33.690Z,10.13
2019-01-03T21:51:01.474Z,11.45
2019-01-03T21:53:29.339Z,9.78
2019-01-03T21:55:57.138Z,13.43
2019-01-03T21:58:26.403Z,11.00
2019-01-03T22:00:55.226Z,12.80
2019-01-03T22:03:23.345Z,14.18
2019-01-03T22:05:51.072Z,11.55
2019-01-03T22:08:19.492Z,13.83
2019-01-03T22:10:47.253Z,14.05
2019-01-03T22:13:15.071Z,12.28
2019-01-03T22:15:44.228Z,20.72
2019-01-03T22:18:12.011Z,13.32
2019-01-03T22:20:39.900Z,10.88
2019-01-03T22:23:07.789Z,12.43
2019-01-03T22:25:35.778Z,11.88
2019-01-03T22:28:03.561Z,12.10
2019-01-03T22:30:31.410Z,9.63
2019-01-03T22:32:59.252Z,10.70
2019-01-03T22:35:27.132Z,11.30
2019-01-03T22:37:55.864Z,12.45
2019-01-03T22:40:24.446Z,13.48
2019-01-03T22:42:52.763Z,9.55
2019-01-03T22:45:21.017Z,10.72
2019-01-03T22:47:49.072Z,11.45
2019-01-03T22:50:16.832Z,14.40
2019-01-03T22:52:44.684Z,12.90
2019-01-03T22:55:12.560Z,11.93
2019-01-03T22:57:41.462Z,9.60
2019-01-03T23:00:39.337Z,10.55
2019-01-03T23:03:07.516Z,10.43
2019-01-03T23:05:35.175Z,11.33
2019-01-03T23:08:02.967Z,18.82
2019-01-03T23:10:30.891Z,11.55
2019-01-03T23:12:59.888Z,12.68
2019-01-03T23:15:29.504Z,13.50
2019-01-03T23:17:59.352Z,8.25
2019-01-03T23:20:27.559Z,12.23
2019-01-03T23:22:55.590Z,12.70
2019-01-03T23:25:23.532Z,12.85
2019-01-03T23:27:51.380Z,12.82
2019-01-03T23:30:19.036Z,10.50
2019-01-03T23:32:47.056Z,10.98
2019-01-03T23:35:16.486Z,12.85
2019-01-03T23:37:44.021Z,11.73
2019-01-03T23:40:11.931Z,11.70
2019-01-03T23:42:39.642Z,10.13
2019-01-03T23:45:15.644Z,9.90
2019-01-03T23:47:43.636Z,10.90
2019-01-03T23:50:13.161Z,8.90
2019-01-03T23:52:40.856Z,9.20
2019-01-03T23:55:09.231Z,10.65
2019-01-03T23:57:37.305Z,11.33
